KDUC/DUC METAR and TAF weather

Enter ICAO airport designator
Station Type Date Time Source
KDUC METAR 2022/05/24 12:35 UTC NOAA

KDUC 241235Z AUTO 30014G19KT 10SM OVC006 18/17 A2986 RMK AO2 LTG DSNT ALQDS T01760174


Station Type Date Time Source
KDUC Decoded METAR 2022/05/24 12:35 UTC NOAA

Duncan, Halliburton Field Airport, OK, United States (KDUC) 34-28-15N 097-57-36W
May 24, 2022 - 08:35 AM EDT / 2022.05.24 1235 UTC
Wind: from the WNW (300 degrees) at 16 MPH (14 KT) gusting to 22 MPH (19 KT):0
Visibility: 10 mile(s):0
Sky conditions: overcast
Weather: Lightning observed
Temperature: 63.7 F (17.6 C)
Dew Point: 63.3 F (17.4 C)
Relative Humidity: 98%
Pressure (altimeter): 29.86 in. Hg (1011 hPa)
ob: KDUC 241235Z AUTO 30014G19KT 10SM OVC006 18/17 A2986 RMK AO2 LTG DSNT ALQDS T01760174
cycle: 12

Station Type Date Time Source
KDUC TAF UTC NOAA

Error!

Example: see airport list